^^
Station Historical Data
Daily Summary for January 4, 2017 Units:  Both    English   Metric
« Previous Day
Next Day »
Daily Weekly Monthly Yearly Custom
  High: Low: Average:
Temperature: TemperatureF °F /  -17.8 °C 60.6 °F /  15.9 °C 68.2 °F /  20.1 °C
Dew Point: DewpointF °F /  -17.8 °C 48.6 °F /  9.2 °C 54.6 °F /  12.6 °C
Humidity: Humidity% 36% 64%
Wind Speed: WindSpeedMPHmph /  0km/h - 7.4mph /  11.9km/h
Wind Gust: WindSpeedGustMPHmph /  0km/h - -
Wind- - SSW
Pressure: PressureIn in /  0 hPa 29.57 in /  1001.2 hPa -
Precipitation: 0.00 in /  0 mm    
Historical Graphs
 
 
Tabular Data for January 4, 2017
Time Temperature Dew Point Pressure Wind Wind Speed Wind Gust Humidity Rainfall Rate (Hourly) solar Conditions
TemperatureF °F /  -17.8 °C DewpointF °F /  -17.8 °C PressureInin /  0hPa Calm     Humidity% HourlyPrecipInin /  0mm SolarRadiationWatts/m^2 W/m2 Conditions
00:04 65.7 °F /  18.7 °C 54.3 °F /  12.4 °C 29.78in /  1008.4hPa SW 4.0mph /  6.4km/h 14.0mph /  22.5km/h 67% 0.00in /  0mm 0.0 W/m2
00:10 65.3 °F /  18.5 °C 54.5 °F /  12.5 °C 29.77in /  1008hPa North 11.0mph /  17.7km/h 12.0mph /  19.3km/h 68% 0.00in /  0mm 0.0 W/m2
00:16 65.1 °F /  18.4 °C 54.3 °F /  12.4 °C 29.77in /  1008hPa WNW 8.1mph /  13km/h 22.0mph /  35.4km/h 68% 0.00in /  0mm 0.0 W/m2
00:22 65.3 °F /  18.5 °C 54.1 °F /  12.3 °C 29.76in /  1007.7hPa Calm   12.0mph /  19.3km/h 67% 0.00in /  0mm 0.0 W/m2
00:28 64.9 °F /  18.3 °C 54.1 °F /  12.3 °C 29.76in /  1007.7hPa WSW 4.9mph /  7.9km/h 12.0mph /  19.3km/h 68% 0.00in /  0mm 0.0 W/m2
00:35 64.9 °F /  18.3 °C 54.1 °F /  12.3 °C 29.76in /  1007.7hPa NW 6.0mph /  9.7km/h 16.0mph /  25.7km/h 68% 0.00in /  0mm 0.0 W/m2
00:41 64.9 °F /  18.3 °C 54.5 °F /  12.5 °C 29.76in /  1007.7hPa North 11.0mph /  17.7km/h 18.0mph /  29km/h 69% 0.00in /  0mm 0.0 W/m2
00:47 64.9 °F /  18.3 °C 54.5 °F /  12.5 °C 29.76in /  1007.7hPa NW 21.0mph /  33.8km/h 21.0mph /  33.8km/h 69% 0.00in /  0mm 0.0 W/m2
00:53 64.8 °F /  18.2 °C 54.3 °F /  12.4 °C 29.76in /  1007.7hPa WNW 4.0mph /  6.4km/h 11.0mph /  17.7km/h 69% 0.00in /  0mm 0.0 W/m2
00:59 64.8 °F /  18.2 °C 54.7 °F /  12.6 °C 29.76in /  1007.7hPa NW 4.9mph /  7.9km/h 9.0mph /  14.5km/h 70% 0.00in /  0mm 0.0 W/m2
01:05 64.6 °F /  18.1 °C 54.5 °F /  12.5 °C 29.75in /  1007.3hPa SSW 11.0mph /  17.7km/h 26.0mph /  41.8km/h 70% 0.00in /  0mm 0.0 W/m2
01:11 64.4 °F /  18 °C 54.9 °F /  12.7 °C 29.75in /  1007.3hPa WNW 0.9mph /  1.4km/h 5.0mph /  8km/h 71% 0.00in /  0mm 0.0 W/m2
01:17 64.0 °F /  17.8 °C 54.5 °F /  12.5 °C 29.75in /  1007.3hPa North 4.0mph /  6.4km/h 12.0mph /  19.3km/h 71% 0.00in /  0mm 0.0 W/m2
01:23 64.0 °F /  17.8 °C 54.9 °F /  12.7 °C 29.75in /  1007.3hPa NW 8.9mph /  14.3km/h 13.0mph /  20.9km/h 72% 0.00in /  0mm 0.0 W/m2
01:29 63.9 °F /  17.7 °C 54.7 °F /  12.6 °C 29.74in /  1007hPa SW 4.0mph /  6.4km/h 16.0mph /  25.7km/h 72% 0.00in /  0mm 0.0 W/m2
01:35 63.9 °F /  17.7 °C 55.0 °F /  12.8 °C 29.74in /  1007hPa SW 8.1mph /  13km/h 8.1mph /  13km/h 73% 0.00in /  0mm 0.0 W/m2
01:41 63.9 °F /  17.7 °C 55.0 °F /  12.8 °C 29.74in /  1007hPa NNW 10.1mph /  16.3km/h 24.0mph /  38.6km/h 73% 0.00in /  0mm 0.0 W/m2
01:47 63.9 °F /  17.7 °C 55.4 °F /  13 °C 29.75in /  1007.3hPa SE 4.9mph /  7.9km/h 9.0mph /  14.5km/h 74% 0.00in /  0mm 0.0 W/m2
01:54 63.7 °F /  17.6 °C 55.2 °F /  12.9 °C 29.74in /  1007hPa West 4.0mph /  6.4km/h 19.0mph /  30.6km/h 74% 0.00in /  0mm 0.0 W/m2
02:00 63.5 °F /  17.5 °C 55.4 °F /  13 °C 29.73in /  1006.7hPa NNW 6.9mph /  11.1km/h 15.0mph /  24.1km/h 75% 0.00in /  0mm 0.0 W/m2
02:06 63.3 °F /  17.4 °C 55.2 °F /  12.9 °C 29.73in /  1006.7hPa NNW 12.1mph /  19.5km/h 17.0mph /  27.4km/h 75% 0.00in /  0mm 0.0 W/m2
02:12 63.3 °F /  17.4 °C 55.2 °F /  12.9 °C 29.73in /  1006.7hPa NNW 4.9mph /  7.9km/h 7.0mph /  11.3km/h 75% 0.00in /  0mm 0.0 W/m2
02:18 63.1 °F /  17.3 °C 55.4 °F /  13 °C 29.73in /  1006.7hPa WNW 13.0mph /  20.9km/h 22.0mph /  35.4km/h 76% 0.00in /  0mm 0.0 W/m2
02:24 63.1 °F /  17.3 °C 55.4 °F /  13 °C 29.72in /  1006.3hPa NNW 10.1mph /  16.3km/h 11.0mph /  17.7km/h 76% 0.00in /  0mm 0.0 W/m2
02:30 63.0 °F /  17.2 °C 55.6 °F /  13.1 °C 29.72in /  1006.3hPa ESE 2.0mph /  3.2km/h 13.0mph /  20.9km/h 77% 0.00in /  0mm 0.0 W/m2
02:36 63.0 °F /  17.2 °C 55.6 °F /  13.1 °C 29.72in /  1006.3hPa WNW 2.9mph /  4.7km/h 16.0mph /  25.7km/h 77% 0.00in /  0mm 0.0 W/m2
02:42 62.8 °F /  17.1 °C 55.4 °F /  13 °C 29.72in /  1006.3hPa NW 15.0mph /  24.1km/h 15.0mph /  24.1km/h 77% 0.00in /  0mm 0.0 W/m2
02:48 62.8 °F /  17.1 °C 55.8 °F /  13.2 °C 29.72in /  1006.3hPa North 10.1mph /  16.3km/h 13.0mph /  20.9km/h 78% 0.00in /  0mm 0.0 W/m2
02:54 62.4 °F /  16.9 °C 55.8 °F /  13.2 °C 29.72in /  1006.3hPa NNW 0.9mph /  1.4km/h 10.0mph /  16.1km/h 79% 0.00in /  0mm 0.0 W/m2
03:01 62.4 °F /  16.9 °C 55.8 °F /  13.2 °C 29.72in /  1006.3hPa WNW 12.1mph /  19.5km/h 20.0mph /  32.2km/h 79% 0.00in /  0mm 0.0 W/m2
03:07 62.2 °F /  16.8 °C 55.9 °F /  13.3 °C 29.72in /  1006.3hPa WSW 4.0mph /  6.4km/h 11.0mph /  17.7km/h 80% 0.00in /  0mm 0.0 W/m2
03:13 62.2 °F /  16.8 °C 55.9 °F /  13.3 °C 29.72in /  1006.3hPa ENE 4.9mph /  7.9km/h 14.0mph /  22.5km/h 80% 0.00in /  0mm 0.0 W/m2
03:19 62.2 °F /  16.8 °C 55.9 °F /  13.3 °C 29.71in /  1006hPa NNW 4.0mph /  6.4km/h 15.0mph /  24.1km/h 80% 0.00in /  0mm 0.0 W/m2
03:25 62.1 °F /  16.7 °C 56.1 °F /  13.4 °C 29.71in /  1006hPa West 6.0mph /  9.7km/h 7.0mph /  11.3km/h 81% 0.00in /  0mm 0.0 W/m2
03:31 62.1 °F /  16.7 °C 56.1 °F /  13.4 °C 29.72in /  1006.3hPa North 4.9mph /  7.9km/h 12.0mph /  19.3km/h 81% 0.00in /  0mm 0.0 W/m2
03:38 61.9 °F /  16.6 °C 55.9 °F /  13.3 °C 29.71in /  1006hPa WNW 8.1mph /  13km/h 10.0mph /  16.1km/h 81% 0.00in /  0mm 0.0 W/m2
03:44 61.9 °F /  16.6 °C 56.3 °F /  13.5 °C 29.72in /  1006.3hPa NW 4.0mph /  6.4km/h 10.0mph /  16.1km/h 82% 0.00in /  0mm 0.0 W/m2
03:50 61.7 °F /  16.5 °C 56.1 °F /  13.4 °C 29.71in /  1006hPa ESE 6.0mph /  9.7km/h 14.0mph /  22.5km/h 82% 0.00in /  0mm 0.0 W/m2
03:56 61.7 °F /  16.5 °C 56.1 °F /  13.4 °C 29.71in /  1006hPa NNW 6.9mph /  11.1km/h 20.0mph /  32.2km/h 82% 0.00in /  0mm 0.0 W/m2
04:02 61.5 °F /  16.4 °C 56.3 °F /  13.5 °C 29.70in /  1005.6hPa NNW 10.1mph /  16.3km/h 16.0mph /  25.7km/h 83% 0.00in /  0mm 0.0 W/m2
04:08 61.5 °F /  16.4 °C 56.3 °F /  13.5 °C 29.71in /  1006hPa WNW 11.0mph /  17.7km/h 15.0mph /  24.1km/h 83% 0.00in /  0mm 0.0 W/m2
04:14 61.3 °F /  16.3 °C 56.1 °F /  13.4 °C 29.71in /  1006hPa NNW 4.0mph /  6.4km/h 14.0mph /  22.5km/h 83% 0.00in /  0mm 0.0 W/m2
04:20 61.3 °F /  16.3 °C 56.5 °F /  13.6 °C 29.70in /  1005.6hPa NNW 11.0mph /  17.7km/h 14.0mph /  22.5km/h 84% 0.00in /  0mm 0.0 W/m2
04:27 61.2 °F /  16.2 °C 56.3 °F /  13.5 °C 29.70in /  1005.6hPa NW 4.0mph /  6.4km/h 9.0mph /  14.5km/h 84% 0.00in /  0mm 0.0 W/m2
04:33 61.2 °F /  16.2 °C 56.3 °F /  13.5 °C 29.70in /  1005.6hPa WNW 6.0mph /  9.7km/h 15.0mph /  24.1km/h 84% 0.00in /  0mm 0.0 W/m2
04:39 61.2 °F /  16.2 °C 56.3 °F /  13.5 °C 29.70in /  1005.6hPa NW 8.9mph /  14.3km/h 18.0mph /  29km/h 84% 0.00in /  0mm 0.0 W/m2
04:45 61.2 °F /  16.2 °C 56.3 °F /  13.5 °C 29.70in /  1005.6hPa West 4.9mph /  7.9km/h 12.0mph /  19.3km/h 84% 0.00in /  0mm 0.0 W/m2
04:51 61.2 °F /  16.2 °C 56.3 °F /  13.5 °C 29.70in /  1005.6hPa ENE 6.0mph /  9.7km/h 9.0mph /  14.5km/h 84% 0.00in /  0mm 0.0 W/m2
04:57 61.2 °F /  16.2 °C 56.3 °F /  13.5 °C 29.70in /  1005.6hPa NW 0.9mph /  1.4km/h 3.0mph /  4.8km/h 84% 0.00in /  0mm 0.0 W/m2
05:03 61.0 °F /  16.1 °C 56.1 °F /  13.4 °C 29.70in /  1005.6hPa WNW 4.0mph /  6.4km/h 8.0mph /  12.9km/h 84% 0.00in /  0mm 0.0 W/m2
05:10 61.0 °F /  16.1 °C 56.1 °F /  13.4 °C 29.70in /  1005.6hPa WSW 2.9mph /  4.7km/h 15.0mph /  24.1km/h 84% 0.00in /  0mm 0.0 W/m2
05:16 61.0 °F /  16.1 °C 56.1 °F /  13.4 °C 29.70in /  1005.6hPa WNW 6.0mph /  9.7km/h 19.0mph /  30.6km/h 84% 0.00in /  0mm 0.0 W/m2
05:22 61.0 °F /  16.1 °C 55.8 °F /  13.2 °C 29.70in /  1005.6hPa North 13.0mph /  20.9km/h 13.0mph /  20.9km/h 83% 0.00in /  0mm 0.0 W/m2
05:28 61.0 °F /  16.1 °C 55.8 °F /  13.2 °C 29.70in /  1005.6hPa NNW 8.1mph /  13km/h 11.0mph /  17.7km/h 83% 0.00in /  0mm 0.0 W/m2
05:34 61.3 °F /  16.3 °C 55.4 °F /  13 °C 29.71in /  1006hPa North 6.0mph /  9.7km/h 22.0mph /  35.4km/h 81% 0.00in /  0mm 0.0 W/m2
05:40 61.3 °F /  16.3 °C 55.4 °F /  13 °C 29.71in /  1006hPa West 4.0mph /  6.4km/h 23.0mph /  37km/h 81% 0.00in /  0mm 0.0 W/m2
05:46 61.3 °F /  16.3 °C 55.4 °F /  13 °C 29.72in /  1006.3hPa NW 6.0mph /  9.7km/h 13.0mph /  20.9km/h 81% 0.00in /  0mm 0.0 W/m2
05:52 61.2 °F /  16.2 °C 55.6 °F /  13.1 °C 29.71in /  1006hPa NE 10.1mph /  16.3km/h 24.0mph /  38.6km/h 82% 0.00in /  0mm 0.0 W/m2
05:59 60.8 °F /  16 °C 55.6 °F /  13.1 °C 29.72in /  1006.3hPa NNW 8.9mph /  14.3km/h 11.0mph /  17.7km/h 83% 0.00in /  0mm 0.0 W/m2
06:05 60.6 °F /  15.9 °C 55.4 °F /  13 °C 29.71in /  1006hPa North 11.0mph /  17.7km/h 27.0mph /  43.5km/h 83% 0.00in /  0mm 0.0 W/m2
06:11 60.6 °F /  15.9 °C 55.4 °F /  13 °C 29.72in /  1006.3hPa NNW 17.0mph /  27.4km/h 20.0mph /  32.2km/h 83% 0.00in /  0mm 0.0 W/m2
06:17 60.6 °F /  15.9 °C 55.4 °F /  13 °C 29.72in /  1006.3hPa NNW 16.1mph /  25.9km/h 24.0mph /  38.6km/h 83% 0.00in /  0mm 5.0 W/m2
06:23 60.6 °F /  15.9 °C 55.4 °F /  13 °C 29.72in /  1006.3hPa North 14.1mph /  22.7km/h 18.0mph /  29km/h 83% 0.00in /  0mm 11.0 W/m2
06:29 60.8 °F /  16 °C 55.6 °F /  13.1 °C 29.72in /  1006.3hPa WNW 4.9mph /  7.9km/h 24.0mph /  38.6km/h 83% 0.00in /  0mm 16.0 W/m2
06:35 60.8 °F /  16 °C 55.6 °F /  13.1 °C 29.73in /  1006.7hPa NW 13.0mph /  20.9km/h 18.0mph /  29km/h 83% 0.00in /  0mm 25.0 W/m2
06:42 60.8 °F /  16 °C 55.2 °F /  12.9 °C 29.72in /  1006.3hPa NNW 4.0mph /  6.4km/h 10.0mph /  16.1km/h 82% 0.00in /  0mm 33.0 W/m2
06:48 60.8 °F /  16 °C 55.2 °F /  12.9 °C 29.73in /  1006.7hPa North 19.9mph /  32km/h 30.0mph /  48.3km/h 82% 0.00in /  0mm 42.0 W/m2
06:54 61.0 °F /  16.1 °C 55.4 °F /  13 °C 29.72in /  1006.3hPa SW 4.9mph /  7.9km/h 13.0mph /  20.9km/h 82% 0.00in /  0mm 54.0 W/m2
07:00 61.0 °F /  16.1 °C 55.4 °F /  13 °C 29.72in /  1006.3hPa NW 4.0mph /  6.4km/h 15.0mph /  24.1km/h 82% 0.00in /  0mm 62.0 W/m2
07:06 61.2 °F /  16.2 °C 55.6 °F /  13.1 °C 29.73in /  1006.7hPa NNW 6.9mph /  11.1km/h 10.0mph /  16.1km/h 82% 0.00in /  0mm 74.0 W/m2
07:12 61.2 °F /  16.2 °C 55.6 °F /  13.1 °C 29.73in /  1006.7hPa NNE 11.0mph /  17.7km/h 18.0mph /  29km/h 82% 0.00in /  0mm 93.0 W/m2
07:19 61.2 °F /  16.2 °C 55.6 °F /  13.1 °C 29.73in /  1006.7hPa NNW 12.1mph /  19.5km/h 15.0mph /  24.1km/h 82% 0.00in /  0mm 97.0 W/m2
07:25 61.2 °F /  16.2 °C 55.6 °F /  13.1 °C 29.73in /  1006.7hPa NNW 0.9mph /  1.4km/h 10.0mph /  16.1km/h 82% 0.00in /  0mm 113.0 W/m2
07:31 61.3 °F /  16.3 °C 55.8 °F /  13.2 °C 29.73in /  1006.7hPa North 10.1mph /  16.3km/h 14.0mph /  22.5km/h 82% 0.00in /  0mm 127.0 W/m2
07:37 61.3 °F /  16.3 °C 55.8 °F /  13.2 °C 29.73in /  1006.7hPa North 2.9mph /  4.7km/h 19.0mph /  30.6km/h 82% 0.00in /  0mm 144.0 W/m2
07:43 61.5 °F /  16.4 °C 55.9 °F /  13.3 °C 29.73in /  1006.7hPa NNE 6.0mph /  9.7km/h 18.0mph /  29km/h 82% 0.00in /  0mm 181.0 W/m2
07:49 61.7 °F /  16.5 °C 56.1 °F /  13.4 °C 29.74in /  1007hPa East 6.0mph /  9.7km/h 14.0mph /  22.5km/h 82% 0.00in /  0mm 192.0 W/m2
07:55 62.2 °F /  16.8 °C 56.3 °F /  13.5 °C 29.74in /  1007hPa NNW 4.0mph /  6.4km/h 15.0mph /  24.1km/h 81% 0.00in /  0mm 199.0 W/m2
08:02 62.4 °F /  16.9 °C 56.5 °F /  13.6 °C 29.74in /  1007hPa NNW 4.0mph /  6.4km/h 7.0mph /  11.3km/h 81% 0.00in /  0mm 309.0 W/m2
08:08 62.6 °F /  17 °C 56.7 °F /  13.7 °C 29.73in /  1006.7hPa SSE 6.0mph /  9.7km/h 15.0mph /  24.1km/h 81% 0.00in /  0mm 385.0 W/m2
08:14 63.0 °F /  17.2 °C 57.0 °F /  13.9 °C 29.73in /  1006.7hPa NNW 6.0mph /  9.7km/h 14.0mph /  22.5km/h 81% 0.00in /  0mm 185.0 W/m2
08:20 62.8 °F /  17.1 °C 56.8 °F /  13.8 °C 29.73in /  1006.7hPa NW 4.0mph /  6.4km/h 8.0mph /  12.9km/h 81% 0.00in /  0mm 274.0 W/m2
08:26 63.0 °F /  17.2 °C 57.0 °F /  13.9 °C 29.73in /  1006.7hPa NNW 0.9mph /  1.4km/h 5.0mph /  8km/h 81% 0.00in /  0mm 220.0 W/m2
08:32 63.0 °F /  17.2 °C 57.0 °F /  13.9 °C 29.74in /  1007hPa North 4.9mph /  7.9km/h 12.0mph /  19.3km/h 81% 0.00in /  0mm 192.0 W/m2
08:38 63.7 °F /  17.6 °C 57.4 °F /  14.1 °C 29.73in /  1006.7hPa North 10.1mph /  16.3km/h 17.0mph /  27.4km/h 80% 0.00in /  0mm 446.0 W/m2
08:44 63.9 °F /  17.7 °C 56.8 °F /  13.8 °C 29.73in /  1006.7hPa SSE 8.1mph /  13km/h 19.0mph /  30.6km/h 78% 0.00in /  0mm 439.0 W/m2
08:50 64.2 °F /  17.9 °C 56.8 °F /  13.8 °C 29.73in /  1006.7hPa NNE 17.9mph /  28.8km/h 20.0mph /  32.2km/h 77% 0.00in /  0mm 469.0 W/m2
08:56 64.0 °F /  17.8 °C 57.0 °F /  13.9 °C 29.72in /  1006.3hPa NNE 14.1mph /  22.7km/h 21.0mph /  33.8km/h 78% 0.00in /  0mm 552.0 W/m2
09:02 63.9 °F /  17.7 °C 56.8 °F /  13.8 °C 29.74in /  1007hPa SSW 16.1mph /  25.9km/h 22.0mph /  35.4km/h 78% 0.00in /  0mm 255.0 W/m2
09:08 64.0 °F /  17.8 °C 57.0 °F /  13.9 °C 29.73in /  1006.7hPa SW 2.9mph /  4.7km/h 3.0mph /  4.8km/h 78% 0.00in /  0mm 348.0 W/m2
09:14 64.9 °F /  18.3 °C 57.6 °F /  14.2 °C 29.73in /  1006.7hPa NNW 17.9mph /  28.8km/h 19.0mph /  30.6km/h 77% 0.00in /  0mm 323.0 W/m2
09:21 64.8 °F /  18.2 °C 57.4 °F /  14.1 °C 29.73in /  1006.7hPa SW 6.0mph /  9.7km/h 9.0mph /  14.5km/h 77% 0.00in /  0mm 654.0 W/m2
09:27 64.8 °F /  18.2 °C 57.0 °F /  13.9 °C 29.73in /  1006.7hPa NNW 10.1mph /  16.3km/h 17.0mph /  27.4km/h 76% 0.00in /  0mm 325.0 W/m2
09:33 65.1 °F /  18.4 °C 57.0 °F /  13.9 °C 29.73in /  1006.7hPa WSW 8.1mph /  13km/h 13.0mph /  20.9km/h 75% 0.00in /  0mm 629.0 W/m2
09:39 65.8 °F /  18.8 °C 57.4 °F /  14.1 °C 29.73in /  1006.7hPa West 2.9mph /  4.7km/h 9.0mph /  14.5km/h 74% 0.00in /  0mm 443.0 W/m2
09:45 66.6 °F /  19.2 °C 57.2 °F /  14 °C 29.74in /  1007hPa North 10.1mph /  16.3km/h 13.0mph /  20.9km/h 72% 0.00in /  0mm 301.0 W/m2
09:51 67.1 °F /  19.5 °C 57.4 °F /  14.1 °C 29.73in /  1006.7hPa West 4.0mph /  6.4km/h 12.0mph /  19.3km/h 71% 0.00in /  0mm 606.0 W/m2
09:57 67.3 °F /  19.6 °C 57.6 °F /  14.2 °C 29.73in /  1006.7hPa North 4.0mph /  6.4km/h 10.0mph /  16.1km/h 71% 0.00in /  0mm 738.0 W/m2
10:05 67.5 °F /  19.7 °C 56.5 °F /  13.6 °C 29.73in /  1006.7hPa NNW 15.0mph /  24.1km/h 15.0mph /  24.1km/h 68% 0.00in /  0mm 830.0 W/m2
10:11 67.6 °F /  19.8 °C 56.7 °F /  13.7 °C 29.73in /  1006.7hPa NW 4.0mph /  6.4km/h 11.0mph /  17.7km/h 68% 0.00in /  0mm 795.0 W/m2
10:17 68.2 °F /  20.1 °C 57.2 °F /  14 °C 29.73in /  1006.7hPa NNW 10.1mph /  16.3km/h 21.0mph /  33.8km/h 68% 0.00in /  0mm 450.0 W/m2
10:24 68.2 °F /  20.1 °C 56.8 °F /  13.8 °C 29.73in /  1006.7hPa NNW 6.9mph /  11.1km/h 16.0mph /  25.7km/h 67% 0.00in /  0mm 795.0 W/m2
10:30 68.7 °F /  20.4 °C 57.4 °F /  14.1 °C 29.73in /  1006.7hPa West 8.9mph /  14.3km/h 14.0mph /  22.5km/h 67% 0.00in /  0mm 993.0 W/m2
10:36 68.7 °F /  20.4 °C 56.8 °F /  13.8 °C 29.73in /  1006.7hPa NW 10.1mph /  16.3km/h 15.0mph /  24.1km/h 66% 0.00in /  0mm 1051.0 W/m2
10:42 67.8 °F /  19.9 °C 56.5 °F /  13.6 °C 29.73in /  1006.7hPa WNW 2.0mph /  3.2km/h 15.0mph /  24.1km/h 67% 0.00in /  0mm 436.0 W/m2
10:48 68.2 °F /  20.1 °C 57.2 °F /  14 °C 29.73in /  1006.7hPa Calm   17.0mph /  27.4km/h 68% 0.00in /  0mm 343.0 W/m2
10:54 68.5 °F /  20.3 °C 57.2 °F /  14 °C 29.74in /  1007hPa NE 8.1mph /  13km/h 13.0mph /  20.9km/h 67% 0.00in /  0mm 568.0 W/m2
11:01 69.3 °F /  20.7 °C 57.4 °F /  14.1 °C 29.73in /  1006.7hPa North 6.0mph /  9.7km/h 10.0mph /  16.1km/h 66% 0.00in /  0mm 1151.0 W/m2
11:07 69.6 °F /  20.9 °C 57.4 °F /  14.1 °C 29.73in /  1006.7hPa NW 11.0mph /  17.7km/h 15.0mph /  24.1km/h 65% 0.00in /  0mm 388.0 W/m2
11:13 68.7 °F /  20.4 °C 56.5 °F /  13.6 °C 29.73in /  1006.7hPa WSW 8.1mph /  13km/h 18.0mph /  29km/h 65% 0.00in /  0mm 464.0 W/m2
11:19 69.1 °F /  20.6 °C 56.8 °F /  13.8 °C 29.73in /  1006.7hPa North 0.9mph /  1.4km/h 12.0mph /  19.3km/h 65% 0.00in /  0mm 510.0 W/m2
11:25 69.1 °F /  20.6 °C 56.8 °F /  13.8 °C 29.73in /  1006.7hPa WNW 8.9mph /  14.3km/h 9.0mph /  14.5km/h 65% 0.00in /  0mm 619.0 W/m2
11:31 70.9 °F /  21.6 °C 57.2 °F /  14 °C 29.73in /  1006.7hPa SSW 4.0mph /  6.4km/h 10.0mph /  16.1km/h 62% 0.00in /  0mm 1278.0 W/m2
11:37 71.8 °F /  22.1 °C 57.2 °F /  14 °C 29.73in /  1006.7hPa NNE 2.9mph /  4.7km/h 17.0mph /  27.4km/h 60% 0.00in /  0mm 1357.0 W/m2
11:43 71.4 °F /  21.9 °C 55.9 °F /  13.3 °C 29.73in /  1006.7hPa WNW 13.0mph /  20.9km/h 14.0mph /  22.5km/h 58% 0.00in /  0mm 1123.0 W/m2
11:50 72.1 °F /  22.3 °C 56.1 °F /  13.4 °C 29.72in /  1006.3hPa NNE 6.0mph /  9.7km/h 12.0mph /  19.3km/h 57% 0.00in /  0mm 432.0 W/m2
11:56 71.8 °F /  22.1 °C 56.7 °F /  13.7 °C 29.72in /  1006.3hPa NNE 6.0mph /  9.7km/h 16.0mph /  25.7km/h 59% 0.00in /  0mm 793.0 W/m2
12:02 71.4 °F /  21.9 °C 56.3 °F /  13.5 °C 29.73in /  1006.7hPa North 6.9mph /  11.1km/h 7.0mph /  11.3km/h 59% 0.00in /  0mm 341.0 W/m2
12:08 72.1 °F /  22.3 °C 56.5 °F /  13.6 °C 29.72in /  1006.3hPa NW 0.9mph /  1.4km/h 7.0mph /  11.3km/h 58% 0.00in /  0mm 396.0 W/m2
12:14 72.7 °F /  22.6 °C 56.5 °F /  13.6 °C 29.72in /  1006.3hPa North 13.0mph /  20.9km/h 13.0mph /  20.9km/h 57% 0.00in /  0mm 1183.0 W/m2
12:20 73.6 °F /  23.1 °C 56.5 °F /  13.6 °C 29.72in /  1006.3hPa NNE 11.0mph /  17.7km/h 14.0mph /  22.5km/h 55% 0.00in /  0mm 1113.0 W/m2
12:26 73.0 °F /  22.8 °C 56.8 °F /  13.8 °C 29.72in /  1006.3hPa ESE 6.0mph /  9.7km/h 9.0mph /  14.5km/h 57% 0.00in /  0mm 1183.0 W/m2
12:32 73.8 °F /  23.2 °C 56.1 °F /  13.4 °C 29.71in /  1006hPa NNE 4.0mph /  6.4km/h 12.0mph /  19.3km/h 54% 0.00in /  0mm 1157.0 W/m2
12:38 74.7 °F /  23.7 °C 56.8 °F /  13.8 °C 29.71in /  1006hPa NNE 6.0mph /  9.7km/h 10.0mph /  16.1km/h 54% 0.00in /  0mm 1238.0 W/m2
12:45 74.8 °F /  23.8 °C 56.5 °F /  13.6 °C 29.71in /  1006hPa North 6.0mph /  9.7km/h 14.0mph /  22.5km/h 53% 0.00in /  0mm 446.0 W/m2
12:51 73.4 °F /  23 °C 55.8 °F /  13.2 °C 29.70in /  1005.6hPa North 2.0mph /  3.2km/h 14.0mph /  22.5km/h 54% 0.00in /  0mm 378.0 W/m2
12:57 73.6 °F /  23.1 °C 55.9 °F /  13.3 °C 29.70in /  1005.6hPa NNE 2.0mph /  3.2km/h 7.0mph /  11.3km/h 54% 0.00in /  0mm 1074.0 W/m2
13:03 74.3 °F /  23.5 °C 55.6 °F /  13.1 °C 29.70in /  1005.6hPa NNE 4.9mph /  7.9km/h 10.0mph /  16.1km/h 52% 0.00in /  0mm 1172.0 W/m2
13:09 74.7 °F /  23.7 °C 55.4 °F /  13 °C 29.70in /  1005.6hPa SSW 0.9mph /  1.4km/h 8.0mph /  12.9km/h 51% 0.00in /  0mm 394.0 W/m2
13:15 74.1 °F /  23.4 °C 55.9 °F /  13.3 °C 29.69in /  1005.3hPa South 4.0mph /  6.4km/h 7.0mph /  11.3km/h 53% 0.00in /  0mm 1253.0 W/m2
13:22 74.5 °F /  23.6 °C 55.8 °F /  13.2 °C 29.69in /  1005.3hPa SSW 4.9mph /  7.9km/h 17.0mph /  27.4km/h 52% 0.00in /  0mm 1194.0 W/m2
13:28 74.8 °F /  23.8 °C 56.1 °F /  13.4 °C 29.69in /  1005.3hPa South 4.0mph /  6.4km/h 10.0mph /  16.1km/h 52% 0.00in /  0mm 410.0 W/m2
13:34 76.5 °F /  24.7 °C 55.9 °F /  13.3 °C 29.68in /  1005hPa South 4.9mph /  7.9km/h 9.0mph /  14.5km/h 49% 0.00in /  0mm 1306.0 W/m2
13:40 76.8 °F /  24.9 °C 56.3 °F /  13.5 °C 29.68in /  1005hPa SSW 4.0mph /  6.4km/h 12.0mph /  19.3km/h 49% 0.00in /  0mm 1172.0 W/m2
13:46 77.9 °F /  25.5 °C 56.1 °F /  13.4 °C 29.68in /  1005hPa SSW 2.0mph /  3.2km/h 4.0mph /  6.4km/h 47% 0.00in /  0mm 1208.0 W/m2
13:52 79.3 °F /  26.3 °C 56.1 °F /  13.4 °C 29.68in /  1005hPa WNW 4.0mph /  6.4km/h 7.0mph /  11.3km/h 45% 0.00in /  0mm 1187.0 W/m2
13:58 79.0 °F /  26.1 °C 55.8 °F /  13.2 °C 29.67in /  1004.6hPa SSW 4.9mph /  7.9km/h 9.0mph /  14.5km/h 45% 0.00in /  0mm 360.0 W/m2
14:04 76.6 °F /  24.8 °C 54.3 °F /  12.4 °C 29.67in /  1004.6hPa SSW 0.9mph /  1.4km/h 7.0mph /  11.3km/h 46% 0.00in /  0mm 1051.0 W/m2
14:10 77.2 °F /  25.1 °C 54.9 °F /  12.7 °C 29.67in /  1004.6hPa SSW 8.9mph /  14.3km/h 9.0mph /  14.5km/h 46% 0.00in /  0mm 1106.0 W/m2
14:17 78.1 °F /  25.6 °C 55.0 °F /  12.8 °C 29.66in /  1004.3hPa Calm   9.0mph /  14.5km/h 45% 0.00in /  0mm 976.0 W/m2
14:23 78.8 °F /  26 °C 55.6 °F /  13.1 °C 29.66in /  1004.3hPa South 4.9mph /  7.9km/h 7.0mph /  11.3km/h 45% 0.00in /  0mm 1021.0 W/m2
14:29 79.0 °F /  26.1 °C 55.2 °F /  12.9 °C 29.65in /  1003.9hPa SSW 6.0mph /  9.7km/h 11.0mph /  17.7km/h 44% 0.00in /  0mm 1046.0 W/m2
14:35 78.4 °F /  25.8 °C 54.1 °F /  12.3 °C 29.65in /  1003.9hPa SSW 10.1mph /  16.3km/h 12.0mph /  19.3km/h 43% 0.00in /  0mm 976.0 W/m2
14:41 78.3 °F /  25.7 °C 54.0 °F /  12.2 °C 29.65in /  1003.9hPa North 10.1mph /  16.3km/h 10.1mph /  16.3km/h 43% 0.00in /  0mm 921.0 W/m2
14:47 77.4 °F /  25.2 °C 53.1 °F /  11.7 °C 29.65in /  1003.9hPa West 8.1mph /  13km/h 9.0mph /  14.5km/h 43% 0.00in /  0mm 951.0 W/m2
14:53 77.7 °F /  25.4 °C 54.7 °F /  12.6 °C 29.65in /  1003.9hPa SSW 11.0mph /  17.7km/h 12.0mph /  19.3km/h 45% 0.00in /  0mm 846.0 W/m2
14:59 79.0 °F /  26.1 °C 54.0 °F /  12.2 °C 29.65in /  1003.9hPa South 6.0mph /  9.7km/h 7.0mph /  11.3km/h 42% 0.00in /  0mm 898.0 W/m2
15:05 79.2 °F /  26.2 °C 52.2 °F /  11.2 °C 29.65in /  1003.9hPa Calm   11.0mph /  17.7km/h 39% 0.00in /  0mm 912.0 W/m2
15:12 79.7 °F /  26.5 °C 54.0 °F /  12.2 °C 29.65in /  1003.9hPa SSE 8.1mph /  13km/h 14.0mph /  22.5km/h 41% 0.00in /  0mm 954.0 W/m2
15:18 79.9 °F /  26.6 °C 53.4 °F /  11.9 °C 29.64in /  1003.6hPa SE 2.9mph /  4.7km/h 4.0mph /  6.4km/h 40% 0.00in /  0mm 998.0 W/m2
15:24 81.3 °F /  27.4 °C 54.0 °F /  12.2 °C 29.64in /  1003.6hPa WNW 8.9mph /  14.3km/h 10.0mph /  16.1km/h 39% 0.00in /  0mm 1014.0 W/m2
15:30 81.0 °F /  27.2 °C 54.3 °F /  12.4 °C 29.63in /  1003.3hPa SE 14.1mph /  22.7km/h 14.1mph /  22.7km/h 40% 0.00in /  0mm 930.0 W/m2
15:36 80.8 °F /  27.1 °C 54.1 °F /  12.3 °C 29.63in /  1003.3hPa SSE 0.9mph /  1.4km/h 6.0mph /  9.7km/h 40% 0.00in /  0mm 914.0 W/m2
15:42 80.8 °F /  27.1 °C 53.6 °F /  12 °C 29.62in /  1002.9hPa SW 2.0mph /  3.2km/h 11.0mph /  17.7km/h 39% 0.00in /  0mm 972.0 W/m2
16:05 79.9 °F /  26.6 °C 54.1 °F /  12.3 °C 29.62in /  1002.9hPa East 2.9mph /  4.7km/h 14.0mph /  22.5km/h 41% 0.00in /  0mm 789.0 W/m2
16:11 80.8 °F /  27.1 °C 54.1 °F /  12.3 °C 29.61in /  1002.6hPa SSE 10.1mph /  16.3km/h 14.0mph /  22.5km/h 40% 0.00in /  0mm 814.0 W/m2
16:17 79.0 °F /  26.1 °C 53.2 °F /  11.8 °C 29.60in /  1002.3hPa South 8.9mph /  14.3km/h 13.0mph /  20.9km/h 41% 0.00in /  0mm 814.0 W/m2
16:23 78.6 °F /  25.9 °C 52.9 °F /  11.6 °C 29.60in /  1002.3hPa West 2.0mph /  3.2km/h 7.0mph /  11.3km/h 41% 0.00in /  0mm 759.0 W/m2
16:29 80.2 °F /  26.8 °C 53.8 °F /  12.1 °C 29.59in /  1001.9hPa South 14.1mph /  22.7km/h 15.0mph /  24.1km/h 40% 0.00in /  0mm 765.0 W/m2
16:35 79.5 °F /  26.4 °C 53.8 °F /  12.1 °C 29.59in /  1001.9hPa ENE 2.0mph /  3.2km/h 12.0mph /  19.3km/h 41% 0.00in /  0mm 693.0 W/m2
16:41 79.9 °F /  26.6 °C 53.4 °F /  11.9 °C 29.59in /  1001.9hPa SSW 0.9mph /  1.4km/h 4.0mph /  6.4km/h 40% 0.00in /  0mm 603.0 W/m2
16:47 79.2 °F /  26.2 °C 51.4 °F /  10.8 °C 29.59in /  1001.9hPa SW 8.9mph /  14.3km/h 19.0mph /  30.6km/h 38% 0.00in /  0mm 538.0 W/m2
16:53 78.3 °F /  25.7 °C 51.3 °F /  10.7 °C 29.58in /  1001.6hPa North 8.9mph /  14.3km/h 17.0mph /  27.4km/h 39% 0.00in /  0mm 457.0 W/m2
17:00 78.4 °F /  25.8 °C 51.4 °F /  10.8 °C 29.58in /  1001.6hPa WSW 4.9mph /  7.9km/h 10.0mph /  16.1km/h 39% 0.00in /  0mm 221.0 W/m2
17:06 77.5 °F /  25.3 °C 52.0 °F /  11.1 °C 29.57in /  1001.2hPa NW 11.0mph /  17.7km/h 17.0mph /  27.4km/h 41% 0.00in /  0mm 476.0 W/m2
17:12 78.3 °F /  25.7 °C 50.5 °F /  10.3 °C 29.58in /  1001.6hPa West 0.9mph /  1.4km/h 2.0mph /  3.2km/h 38% 0.00in /  0mm 520.0 W/m2
17:18 78.6 °F /  25.9 °C 52.3 °F /  11.3 °C 29.57in /  1001.2hPa NE 2.9mph /  4.7km/h 10.0mph /  16.1km/h 40% 0.00in /  0mm 450.0 W/m2
17:24 79.5 °F /  26.4 °C 52.3 °F /  11.3 °C 29.58in /  1001.6hPa SSE 6.9mph /  11.1km/h 12.0mph /  19.3km/h 39% 0.00in /  0mm 441.0 W/m2
17:30 79.7 °F /  26.5 °C 50.4 °F /  10.2 °C 29.58in /  1001.6hPa South 8.9mph /  14.3km/h 14.0mph /  22.5km/h 36% 0.00in /  0mm 381.0 W/m2
17:37 78.6 °F /  25.9 °C 50.2 °F /  10.1 °C 29.58in /  1001.6hPa SSW 11.0mph /  17.7km/h 14.0mph /  22.5km/h 37% 0.00in /  0mm 362.0 W/m2
17:43 78.3 °F /  25.7 °C 50.5 °F /  10.3 °C 29.58in /  1001.6hPa South 6.9mph /  11.1km/h 14.0mph /  22.5km/h 38% 0.00in /  0mm 102.0 W/m2
17:49 77.4 °F /  25.2 °C 49.8 °F /  9.9 °C 29.58in /  1001.6hPa SE 10.1mph /  16.3km/h 19.0mph /  30.6km/h 38% 0.00in /  0mm 311.0 W/m2
17:55 77.7 °F /  25.4 °C 50.0 °F /  10 °C 29.58in /  1001.6hPa SW 6.9mph /  11.1km/h 15.0mph /  24.1km/h 38% 0.00in /  0mm 330.0 W/m2
18:01 78.1 °F /  25.6 °C 50.4 °F /  10.2 °C 29.58in /  1001.6hPa SSE 14.1mph /  22.7km/h 16.0mph /  25.7km/h 38% 0.00in /  0mm 225.0 W/m2
18:07 77.2 °F /  25.1 °C 49.6 °F /  9.8 °C 29.58in /  1001.6hPa South 8.1mph /  13km/h 12.0mph /  19.3km/h 38% 0.00in /  0mm 76.0 W/m2
18:13 76.5 °F /  24.7 °C 49.6 °F /  9.8 °C 29.58in /  1001.6hPa SSE 8.1mph /  13km/h 11.0mph /  17.7km/h 39% 0.00in /  0mm 47.0 W/m2
18:19 75.9 °F /  24.4 °C 49.8 °F /  9.9 °C 29.58in /  1001.6hPa SSE 8.1mph /  13km/h 8.1mph /  13km/h 40% 0.00in /  0mm 107.0 W/m2
18:25 75.9 °F /  24.4 °C 49.1 °F /  9.5 °C 29.58in /  1001.6hPa South 6.9mph /  11.1km/h 16.0mph /  25.7km/h 39% 0.00in /  0mm 44.0 W/m2
18:32 75.9 °F /  24.4 °C 49.1 °F /  9.5 °C 29.58in /  1001.6hPa SSE 6.9mph /  11.1km/h 10.0mph /  16.1km/h 39% 0.00in /  0mm 156.0 W/m2
18:37 76.1 °F /  24.5 °C 48.6 °F /  9.2 °C 29.58in /  1001.6hPa South 12.1mph /  19.5km/h 15.0mph /  24.1km/h 38% 0.00in /  0mm 40.0 W/m2
18:44 75.7 °F /  24.3 °C 49.1 °F /  9.5 °C 29.58in /  1001.6hPa South 8.9mph /  14.3km/h 16.0mph /  25.7km/h 39% 0.00in /  0mm 44.0 W/m2
18:50 75.6 °F /  24.2 °C 49.5 °F /  9.7 °C 29.58in /  1001.6hPa SSE 6.9mph /  11.1km/h 22.0mph /  35.4km/h 40% 0.00in /  0mm 46.0 W/m2
18:56 75.6 °F /  24.2 °C 48.9 °F /  9.4 °C 29.58in /  1001.6hPa SSE 10.1mph /  16.3km/h 12.0mph /  19.3km/h 39% 0.00in /  0mm 49.0 W/m2
19:02 75.4 °F /  24.1 °C 48.7 °F /  9.3 °C 29.59in /  1001.9hPa South 8.9mph /  14.3km/h 16.0mph /  25.7km/h 39% 0.00in /  0mm 30.0 W/m2
19:08 75.2 °F /  24 °C 48.6 °F /  9.2 °C 29.59in /  1001.9hPa SSE 10.1mph /  16.3km/h 14.0mph /  22.5km/h 39% 0.00in /  0mm 28.0 W/m2
19:14 74.8 °F /  23.8 °C 48.9 °F /  9.4 °C 29.60in /  1002.3hPa South 6.9mph /  11.1km/h 16.0mph /  25.7km/h 40% 0.00in /  0mm 21.0 W/m2
19:20 74.8 °F /  23.8 °C 48.9 °F /  9.4 °C 29.60in /  1002.3hPa SSW 15.0mph /  24.1km/h 18.0mph /  29km/h 40% 0.00in /  0mm 26.0 W/m2
19:26 74.8 °F /  23.8 °C 50.2 °F /  10.1 °C 29.60in /  1002.3hPa South 8.1mph /  13km/h 19.0mph /  30.6km/h 42% 0.00in /  0mm 16.0 W/m2
19:32 73.8 °F /  23.2 °C 52.9 °F /  11.6 °C 29.60in /  1002.3hPa South 8.1mph /  13km/h 15.0mph /  24.1km/h 48% 0.00in /  0mm 11.0 W/m2
19:38 72.7 °F /  22.6 °C 53.4 °F /  11.9 °C 29.61in /  1002.6hPa South 2.0mph /  3.2km/h 4.0mph /  6.4km/h 51% 0.00in /  0mm 5.0 W/m2
19:44 72.1 °F /  22.3 °C 53.6 °F /  12 °C 29.60in /  1002.3hPa SSE 4.0mph /  6.4km/h 6.0mph /  9.7km/h 52% 0.00in /  0mm 7.0 W/m2
19:50 71.6 °F /  22 °C 54.1 °F /  12.3 °C 29.61in /  1002.6hPa SSW 11.0mph /  17.7km/h 12.0mph /  19.3km/h 54% 0.00in /  0mm 5.0 W/m2
19:57 71.2 °F /  21.8 °C 54.7 °F /  12.6 °C 29.61in /  1002.6hPa SE 12.1mph /  19.5km/h 12.1mph /  19.5km/h 56% 0.00in /  0mm 0.0 W/m2
20:03 70.5 °F /  21.4 °C 55.0 °F /  12.8 °C 29.61in /  1002.6hPa South 10.1mph /  16.3km/h 15.0mph /  24.1km/h 58% 0.00in /  0mm 0.0 W/m2
20:09 70.0 °F /  21.1 °C 55.4 °F /  13 °C 29.61in /  1002.6hPa South 8.1mph /  13km/h 16.0mph /  25.7km/h 60% 0.00in /  0mm 0.0 W/m2
20:15 69.6 °F /  20.9 °C 55.6 °F /  13.1 °C 29.61in /  1002.6hPa South 8.9mph /  14.3km/h 15.0mph /  24.1km/h 61% 0.00in /  0mm 0.0 W/m2
20:21 69.4 °F /  20.8 °C 55.9 °F /  13.3 °C 29.62in /  1002.9hPa South 11.0mph /  17.7km/h 15.0mph /  24.1km/h 62% 0.00in /  0mm 0.0 W/m2
20:27 69.3 °F /  20.7 °C 55.8 °F /  13.2 °C 29.62in /  1002.9hPa South 16.1mph /  25.9km/h 19.0mph /  30.6km/h 62% 0.00in /  0mm 0.0 W/m2
20:33 69.1 °F /  20.6 °C 55.6 °F /  13.1 °C 29.62in /  1002.9hPa SSE 6.9mph /  11.1km/h 19.0mph /  30.6km/h 62% 0.00in /  0mm 0.0 W/m2
20:39 68.7 °F /  20.4 °C 55.6 °F /  13.1 °C 29.62in /  1002.9hPa SSE 10.1mph /  16.3km/h 20.0mph /  32.2km/h 63% 0.00in /  0mm 0.0 W/m2
20:45 68.5 °F /  20.3 °C 55.4 °F /  13 °C 29.62in /  1002.9hPa South 6.9mph /  11.1km/h 15.0mph /  24.1km/h 63% 0.00in /  0mm 0.0 W/m2
20:51 68.4 °F /  20.2 °C 55.2 °F /  12.9 °C 29.63in /  1003.3hPa SE 16.1mph /  25.9km/h 16.1mph /  25.9km/h 63% 0.00in /  0mm 0.0 W/m2
20:57 68.2 °F /  20.1 °C 55.0 °F /  12.8 °C 29.63in /  1003.3hPa South 10.1mph /  16.3km/h 19.0mph /  30.6km/h 63% 0.00in /  0mm 0.0 W/m2
21:03 67.8 °F /  19.9 °C 55.2 °F /  12.9 °C 29.63in /  1003.3hPa South 14.1mph /  22.7km/h 15.0mph /  24.1km/h 64% 0.00in /  0mm 0.0 W/m2
21:09 67.8 °F /  19.9 °C 55.2 °F /  12.9 °C 29.63in /  1003.3hPa South 4.9mph /  7.9km/h 11.0mph /  17.7km/h 64% 0.00in /  0mm 0.0 W/m2
21:16 67.5 °F /  19.7 °C 55.2 °F /  12.9 °C 29.64in /  1003.6hPa SSE 4.9mph /  7.9km/h 13.0mph /  20.9km/h 65% 0.00in /  0mm 0.0 W/m2
21:22 67.3 °F /  19.6 °C 54.7 °F /  12.6 °C 29.63in /  1003.3hPa SSE 8.1mph /  13km/h 17.0mph /  27.4km/h 64% 0.00in /  0mm 0.0 W/m2
21:28 66.9 °F /  19.4 °C 54.9 °F /  12.7 °C 29.63in /  1003.3hPa South 6.9mph /  11.1km/h 19.0mph /  30.6km/h 65% 0.00in /  0mm 0.0 W/m2
21:34 66.7 °F /  19.3 °C 54.7 °F /  12.6 °C 29.64in /  1003.6hPa South 6.9mph /  11.1km/h 16.0mph /  25.7km/h 65% 0.00in /  0mm 0.0 W/m2
21:40 66.6 °F /  19.2 °C 54.9 °F /  12.7 °C 29.64in /  1003.6hPa South 11.0mph /  17.7km/h 15.0mph /  24.1km/h 66% 0.00in /  0mm 0.0 W/m2
21:46 66.4 °F /  19.1 °C 54.7 °F /  12.6 °C 29.64in /  1003.6hPa South 11.0mph /  17.7km/h 14.0mph /  22.5km/h 66% 0.00in /  0mm 0.0 W/m2
21:52 66.2 °F /  19 °C 54.9 °F /  12.7 °C 29.64in /  1003.6hPa South 11.0mph /  17.7km/h 16.0mph /  25.7km/h 67% 0.00in /  0mm 0.0 W/m2
21:58 66.0 °F /  18.9 °C 54.7 °F /  12.6 °C 29.63in /  1003.3hPa South 17.0mph /  27.4km/h 20.0mph /  32.2km/h 67% 0.00in /  0mm 0.0 W/m2
22:04 66.0 °F /  18.9 °C 54.7 °F /  12.6 °C 29.63in /  1003.3hPa South 13.0mph /  20.9km/h 19.0mph /  30.6km/h 67% 0.00in /  0mm 0.0 W/m2
22:10 65.8 °F /  18.8 °C 54.5 °F /  12.5 °C 29.64in /  1003.6hPa South 10.1mph /  16.3km/h 15.0mph /  24.1km/h 67% 0.00in /  0mm 0.0 W/m2
22:16 65.7 °F /  18.7 °C 54.3 °F /  12.4 °C 29.64in /  1003.6hPa SSE 6.0mph /  9.7km/h 17.0mph /  27.4km/h 67% 0.00in /  0mm 0.0 W/m2
22:23 65.5 °F /  18.6 °C 54.3 °F /  12.4 °C 29.64in /  1003.6hPa South 11.0mph /  17.7km/h 18.0mph /  29km/h 67% 0.00in /  0mm 0.0 W/m2
22:29 65.3 °F /  18.5 °C 54.5 °F /  12.5 °C 29.64in /  1003.6hPa South 14.1mph /  22.7km/h 19.0mph /  30.6km/h 68% 0.00in /  0mm 0.0 W/m2
22:35 65.1 °F /  18.4 °C 54.3 °F /  12.4 °C 29.64in /  1003.6hPa South 10.1mph /  16.3km/h 17.0mph /  27.4km/h 68% 0.00in /  0mm 0.0 W/m2
22:41 65.1 °F /  18.4 °C 54.3 °F /  12.4 °C 29.64in /  1003.6hPa South 4.9mph /  7.9km/h 15.0mph /  24.1km/h 68% 0.00in /  0mm 0.0 W/m2
22:47 64.9 °F /  18.3 °C 54.1 °F /  12.3 °C 29.65in /  1003.9hPa South 11.0mph /  17.7km/h 14.0mph /  22.5km/h 68% 0.00in /  0mm 0.0 W/m2
22:53 64.9 °F /  18.3 °C 54.1 °F /  12.3 °C 29.65in /  1003.9hPa SSE 13.0mph /  20.9km/h 13.0mph /  20.9km/h 68% 0.00in /  0mm 0.0 W/m2
22:59 64.8 °F /  18.2 °C 54.3 °F /  12.4 °C 29.65in /  1003.9hPa South 4.9mph /  7.9km/h 7.0mph /  11.3km/h 69% 0.00in /  0mm 0.0 W/m2
23:05 64.6 °F /  18.1 °C 54.1 °F /  12.3 °C 29.65in /  1003.9hPa South 4.0mph /  6.4km/h 6.0mph /  9.7km/h 69% 0.00in /  0mm 0.0 W/m2
23:11 64.6 °F /  18.1 °C 54.1 °F /  12.3 °C 29.66in /  1004.3hPa South 4.0mph /  6.4km/h 12.0mph /  19.3km/h 69% 0.00in /  0mm 0.0 W/m2
23:17 64.8 °F /  18.2 °C 54.0 °F /  12.2 °C 29.66in /  1004.3hPa South 6.0mph /  9.7km/h 10.0mph /  16.1km/h 68% 0.00in /  0mm 0.0 W/m2
23:24 64.8 °F /  18.2 °C 54.0 °F /  12.2 °C 29.67in /  1004.6hPa SSE 4.9mph /  7.9km/h 13.0mph /  20.9km/h 68% 0.00in /  0mm 0.0 W/m2
23:30 64.8 °F /  18.2 °C 54.0 °F /  12.2 °C 29.67in /  1004.6hPa SSE 8.9mph /  14.3km/h 15.0mph /  24.1km/h 68% 0.00in /  0mm 0.0 W/m2
23:36 64.6 °F /  18.1 °C 53.8 °F /  12.1 °C 29.67in /  1004.6hPa South 8.9mph /  14.3km/h 14.0mph /  22.5km/h 68% 0.00in /  0mm 0.0 W/m2
23:42 64.4 °F /  18 °C 54.0 °F /  12.2 °C 29.67in /  1004.6hPa SSE 10.1mph /  16.3km/h 11.0mph /  17.7km/h 69% 0.00in /  0mm 0.0 W/m2
23:48 64.4 °F /  18 °C 54.0 °F /  12.2 °C 29.66in /  1004.3hPa South 6.0mph /  9.7km/h 10.0mph /  16.1km/h 69% 0.00in /  0mm 0.0 W/m2
23:54 64.2 °F /  17.9 °C 53.8 °F /  12.1 °C 29.66in /  1004.3hPa SSE 6.0mph /  9.7km/h 12.0mph /  19.3km/h 69% 0.00in /  0mm 0.0 W/m2
Regenstein, Windhoek, Namibia
Compliments of Weather Underground - 3 mb